createdAt,value
2023-02-13T00:00:27.507Z,20.30
2023-02-13T00:00:59.543Z,19.63
2023-02-13T00:01:31.766Z,20.42
2023-02-13T00:02:03.628Z,19.90
2023-02-13T00:02:35.420Z,18.70
2023-02-13T00:03:07.115Z,18.58
2023-02-13T00:03:38.892Z,17.88
2023-02-13T00:04:11.226Z,17.38
2023-02-13T00:04:43.211Z,18.58
2023-02-13T00:05:15.204Z,18.67
2023-02-13T00:05:47.001Z,18.40
2023-02-13T00:06:18.594Z,18.52
2023-02-13T00:06:50.251Z,20.40
2023-02-13T00:07:21.835Z,18.40
2023-02-13T00:07:53.647Z,18.42
2023-02-13T00:08:25.383Z,18.35
2023-02-13T00:08:57.036Z,19.17
2023-02-13T00:09:28.678Z,19.48
2023-02-13T00:10:00.270Z,19.17
2023-02-13T00:10:31.856Z,20.10
2023-02-13T00:11:03.478Z,19.48
2023-02-13T00:11:35.129Z,18.95
2023-02-13T00:12:08.187Z,19.67
2023-02-13T00:12:39.987Z,18.67
2023-02-13T00:13:11.685Z,18.15
2023-02-13T00:13:43.442Z,19.02
2023-02-13T00:14:15.101Z,19.08
2023-02-13T00:14:46.693Z,18.08
2023-02-13T00:15:18.575Z,18.30
2023-02-13T00:16:00.802Z,18.38
2023-02-13T00:16:32.507Z,18.52
2023-02-13T00:17:05.068Z,19.05
2023-02-13T00:17:37.111Z,17.92
2023-02-13T00:18:08.714Z,18.17
2023-02-13T00:18:40.417Z,18.30
2023-02-13T00:19:12.071Z,18.08
2023-02-13T00:19:43.950Z,19.73
2023-02-13T00:20:15.527Z,17.05
2023-02-13T00:20:58.174Z,16.67
2023-02-13T00:21:30.008Z,18.70
2023-02-13T00:22:01.635Z,19.13
2023-02-13T00:22:37.266Z,19.30
2023-02-13T00:23:08.837Z,18.67
2023-02-13T00:23:40.818Z,18.63
2023-02-13T00:24:12.499Z,18.35
2023-02-13T00:24:44.134Z,18.60
2023-02-13T00:25:15.769Z,19.00
2023-02-13T00:25:47.502Z,16.58
2023-02-13T00:26:19.259Z,18.08
2023-02-13T00:26:51.435Z,18.45
2023-02-13T00:27:23.034Z,19.52
2023-02-13T00:27:54.605Z,18.45
2023-02-13T00:28:27.079Z,19.02
2023-02-13T00:28:58.865Z,19.63
2023-02-13T00:29:30.501Z,19.42
2023-02-13T00:30:04.353Z,18.08
2023-02-13T00:30:35.965Z,18.58
2023-02-13T00:31:10.698Z,17.67
2023-02-13T00:31:42.470Z,18.20
2023-02-13T00:32:14.953Z,18.55
2023-02-13T00:32:46.792Z,18.13
2023-02-13T00:33:18.603Z,18.40
2023-02-13T00:33:50.319Z,16.38
2023-02-13T00:34:21.907Z,16.17
2023-02-13T00:34:53.502Z,17.73
2023-02-13T00:35:25.110Z,16.88
2023-02-13T00:36:07.677Z,16.85
2023-02-13T00:36:39.549Z,18.15
2023-02-13T00:37:11.307Z,17.10
2023-02-13T00:37:42.979Z,17.45
2023-02-13T00:38:14.613Z,16.48
2023-02-13T00:38:47.342Z,17.08
2023-02-13T00:39:19.005Z,16.48
2023-02-13T00:39:50.676Z,17.73
2023-02-13T00:40:22.772Z,17.50
2023-02-13T00:40:54.396Z,16.38
2023-02-13T00:41:26.120Z,16.95
2023-02-13T00:41:57.699Z,19.10
2023-02-13T00:42:29.303Z,18.73
2023-02-13T00:43:00.984Z,16.70
2023-02-13T00:43:33.243Z,17.63
2023-02-13T00:44:04.860Z,15.75
2023-02-13T00:44:36.657Z,16.55
2023-02-13T00:45:08.758Z,16.08
2023-02-13T00:45:40.477Z,16.33
2023-02-13T00:46:12.202Z,16.35
2023-02-13T00:46:43.965Z,17.52
2023-02-13T00:47:15.834Z,17.67
2023-02-13T00:47:47.559Z,20.00
2023-02-13T00:48:19.252Z,19.90
2023-02-13T00:48:50.946Z,19.95
2023-02-13T00:49:22.733Z,21.00
2023-02-13T00:49:54.296Z,17.58
2023-02-13T00:50:25.918Z,17.50
2023-02-13T00:50:57.968Z,19.17
2023-02-13T00:51:29.895Z,17.33
2023-02-13T00:52:01.563Z,18.83
2023-02-13T00:52:33.270Z,19.25
2023-02-13T00:53:04.911Z,19.92
2023-02-13T00:53:37.288Z,20.45
2023-02-13T00:54:08.966Z,17.77
2023-02-13T00:54:40.657Z,17.75
2023-02-13T00:55:12.286Z,17.88
2023-02-13T00:55:44.669Z,18.98
2023-02-13T00:56:16.289Z,17.85
2023-02-13T00:56:47.923Z,17.83
2023-02-13T00:57:19.614Z,17.70
2023-02-13T00:57:51.205Z,18.27
2023-02-13T00:58:23.769Z,18.60
2023-02-13T00:58:55.475Z,15.75
2023-02-13T00:59:27.060Z,16.15
2023-02-13T00:59:59.304Z,16.75
2023-02-13T01:00:31.012Z,17.27
2023-02-13T01:01:02.737Z,16.23
2023-02-13T01:01:34.364Z,18.48
2023-02-13T01:02:05.994Z,19.27
2023-02-13T01:02:37.599Z,18.02
2023-02-13T01:03:09.876Z,17.45
2023-02-13T01:03:41.770Z,17.98
2023-02-13T01:04:13.402Z,16.73
2023-02-13T01:04:45.175Z,18.25
2023-02-13T01:05:16.849Z,16.42
2023-02-13T01:05:49.410Z,17.38
2023-02-13T01:06:21.044Z,17.63
2023-02-13T01:06:52.792Z,16.85
2023-02-13T01:07:24.428Z,15.40
2023-02-13T01:07:56.981Z,18.00
2023-02-13T01:08:28.715Z,17.13
2023-02-13T01:09:00.341Z,17.75
2023-02-13T01:09:32.041Z,16.45
2023-02-13T01:10:04.193Z,18.13
2023-02-13T01:10:37.946Z,16.88
2023-02-13T01:11:09.901Z,18.00
2023-02-13T01:11:41.560Z,17.55
2023-02-13T01:12:13.169Z,17.35
2023-02-13T01:12:44.782Z,18.00
2023-02-13T01:13:21.178Z,18.10
2023-02-13T01:13:52.860Z,17.10
2023-02-13T01:14:25.280Z,18.92
2023-02-13T01:14:56.887Z,19.42
2023-02-13T01:15:28.568Z,18.50
2023-02-13T01:16:00.654Z,18.25
2023-02-13T01:16:32.462Z,18.42
2023-02-13T01:17:04.030Z,18.15
2023-02-13T01:17:35.655Z,19.00
2023-02-13T01:18:07.294Z,18.67
2023-02-13T01:18:39.381Z,19.38
2023-02-13T01:19:11.013Z,18.63
2023-02-13T01:19:42.739Z,19.27
2023-02-13T01:20:14.925Z,20.05
2023-02-13T01:20:57.583Z,18.13
2023-02-13T01:21:29.327Z,19.13
2023-02-13T01:22:00.952Z,19.40
2023-02-13T01:22:32.713Z,19.02
2023-02-13T01:23:04.852Z,19.20
2023-02-13T01:23:38.945Z,19.77
2023-02-13T01:24:10.783Z,19.80
2023-02-13T01:24:42.421Z,19.23
2023-02-13T01:25:14.003Z,19.70
2023-02-13T01:25:45.621Z,19.65
2023-02-13T01:26:20.342Z,19.77
2023-02-13T01:26:52.005Z,20.13
2023-02-13T01:27:23.625Z,20.38
2023-02-13T01:27:55.247Z,20.58
2023-02-13T01:28:27.192Z,20.63
2023-02-13T01:28:58.999Z,20.60
2023-02-13T01:29:30.774Z,20.35
2023-02-13T01:30:02.700Z,23.35
2023-02-13T01:30:34.679Z,21.45
2023-02-13T01:31:06.369Z,20.50
2023-02-13T01:31:38.194Z,20.73
2023-02-13T01:32:10.138Z,19.63
2023-02-13T01:32:43.108Z,21.08
2023-02-13T01:33:14.710Z,21.17
2023-02-13T01:33:46.478Z,20.15
2023-02-13T01:34:18.403Z,20.38
2023-02-13T01:34:49.991Z,20.02
2023-02-13T01:35:21.610Z,20.13
2023-02-13T01:35:53.595Z,18.60
2023-02-13T01:36:26.277Z,20.05
2023-02-13T01:36:57.894Z,19.58
2023-02-13T01:37:29.709Z,21.05
2023-02-13T01:38:01.372Z,20.35
2023-02-13T01:38:32.978Z,20.05
2023-02-13T01:39:04.787Z,20.98
2023-02-13T01:39:36.428Z,19.83
2023-02-13T01:40:10.957Z,20.30
2023-02-13T01:40:53.217Z,19.80
2023-02-13T01:41:26.968Z,19.73
2023-02-13T01:41:58.928Z,18.48
2023-02-13T01:42:32.329Z,20.00
2023-02-13T01:43:03.934Z,19.17
2023-02-13T01:43:52.347Z,18.48
2023-02-13T01:44:46.888Z,18.35
2023-02-13T01:45:27.971Z,17.35
2023-02-13T01:46:01.010Z,18.65
2023-02-13T01:46:38.770Z,19.05
2023-02-13T01:47:13.081Z,18.83
2023-02-13T01:47:48.599Z,17.67
2023-02-13T01:48:23.192Z,18.88
2023-02-13T01:48:57.931Z,18.10
2023-02-13T01:49:29.687Z,18.95
2023-02-13T01:50:13.290Z,18.25
2023-02-13T01:50:52.717Z,19.27
2023-02-13T01:51:28.289Z,18.83
2023-02-13T01:52:00.185Z,18.10
2023-02-13T01:52:32.183Z,18.25
2023-02-13T01:53:20.566Z,17.63
2023-02-13T01:54:04.129Z,16.45
2023-02-13T01:54:36.257Z,16.05
2023-02-13T01:55:09.872Z,17.48
2023-02-13T01:55:50.653Z,17.75
2023-02-13T01:56:29.716Z,17.48
2023-02-13T01:57:08.336Z,17.52
2023-02-13T01:57:42.547Z,17.67
2023-02-13T01:58:19.158Z,18.00
2023-02-13T01:58:54.176Z,17.98
2023-02-13T01:59:30.124Z,17.45
2023-02-13T02:00:14.000Z,17.85
2023-02-13T02:00:50.112Z,18.42
2023-02-13T02:01:23.279Z,16.98
2023-02-13T02:01:56.781Z,17.92
2023-02-13T02:02:31.733Z,17.45
2023-02-13T02:03:13.713Z,17.90
2023-02-13T02:03:55.637Z,16.92
2023-02-13T02:04:33.631Z,17.55
2023-02-13T02:05:06.747Z,16.20
2023-02-13T02:05:39.239Z,16.60
2023-02-13T02:06:18.419Z,17.38
2023-02-13T02:06:57.169Z,17.63
2023-02-13T02:07:31.092Z,16.98
2023-02-13T02:08:08.081Z,16.90
2023-02-13T02:08:39.681Z,16.83
2023-02-13T02:09:17.022Z,17.15
2023-02-13T02:09:50.200Z,16.83
2023-02-13T02:10:22.353Z,18.50
2023-02-13T02:10:56.803Z,17.50
2023-02-13T02:11:41.895Z,15.93
2023-02-13T02:12:28.645Z,16.73
2023-02-13T02:13:26.373Z,16.80
2023-02-13T02:13:59.063Z,15.10
2023-02-13T02:14:31.163Z,15.73
2023-02-13T02:15:04.993Z,17.42
2023-02-13T02:15:36.852Z,16.05
2023-02-13T02:16:08.756Z,16.63
2023-02-13T02:16:40.415Z,16.35
2023-02-13T02:17:12.364Z,16.83
2023-02-13T02:17:44.122Z,15.63
2023-02-13T02:18:20.880Z,16.45
2023-02-13T02:18:52.714Z,16.02
2023-02-13T02:19:34.165Z,15.73
2023-02-13T02:20:20.667Z,15.93
2023-02-13T02:21:01.078Z,16.55
2023-02-13T02:22:06.462Z,16.45
2023-02-13T02:23:05.918Z,15.38
2023-02-13T02:23:55.980Z,15.57
2023-02-13T02:24:42.512Z,16.13
2023-02-13T02:25:25.928Z,16.35
2023-02-13T02:26:18.835Z,15.80
2023-02-13T02:27:26.433Z,16.75
2023-02-13T02:28:04.549Z,16.15
2023-02-13T02:29:07.000Z,17.50
2023-02-13T02:30:03.971Z,16.73
2023-02-13T02:30:38.476Z,16.13
2023-02-13T02:31:35.070Z,16.73
2023-02-13T02:32:23.952Z,15.35
2023-02-13T02:33:07.722Z,16.58
2023-02-13T02:34:03.064Z,16.45
2023-02-13T02:34:52.897Z,16.58
2023-02-13T02:35:48.899Z,16.58
2023-02-13T02:36:30.261Z,16.20
2023-02-13T02:37:49.644Z,16.67
2023-02-13T02:38:32.195Z,15.63
2023-02-13T02:39:16.586Z,16.30
2023-02-13T02:40:12.401Z,17.60
2023-02-13T02:41:11.006Z,16.25
2023-02-13T02:42:14.638Z,16.27
2023-02-13T02:42:59.526Z,14.82
2023-02-13T02:43:59.610Z,16.67
2023-02-13T02:44:45.013Z,16.67
2023-02-13T02:45:41.066Z,14.70
2023-02-13T02:46:12.706Z,13.73
2023-02-13T02:47:13.408Z,16.38
2023-02-13T02:48:12.363Z,14.27
2023-02-13T02:49:12.735Z,14.13
2023-02-13T02:50:02.225Z,14.52
2023-02-13T02:50:39.735Z,13.52
2023-02-13T02:51:11.291Z,14.55
2023-02-13T02:51:51.910Z,16.77
2023-02-13T02:52:31.157Z,15.48
2023-02-13T02:53:29.733Z,16.15
2023-02-13T02:54:27.987Z,15.02
2023-02-13T02:55:27.910Z,15.60
2023-02-13T02:56:28.186Z,14.32
2023-02-13T02:57:10.188Z,15.18
2023-02-13T02:58:07.779Z,15.43
2023-02-13T02:59:10.261Z,15.07
2023-02-13T03:00:02.687Z,14.88
2023-02-13T03:00:55.995Z,16.05
2023-02-13T03:01:48.548Z,16.52
2023-02-13T03:02:40.039Z,17.25
2023-02-13T03:03:42.298Z,17.90
2023-02-13T03:05:00.046Z,14.65
2023-02-13T03:05:53.495Z,15.25
2023-02-13T03:06:36.766Z,15.07
2023-02-13T03:07:11.122Z,15.98
2023-02-13T03:07:44.193Z,16.75
2023-02-13T03:08:37.416Z,18.10
2023-02-13T03:09:33.947Z,17.20
2023-02-13T03:10:34.126Z,17.42
2023-02-13T03:11:25.112Z,16.23
2023-02-13T03:12:15.521Z,16.52
2023-02-13T03:13:21.072Z,16.73
2023-02-13T03:13:53.772Z,15.63
2023-02-13T03:14:28.265Z,17.45
2023-02-13T03:14:59.900Z,18.90
2023-02-13T03:15:32.958Z,18.77
2023-02-13T03:16:23.775Z,17.52
2023-02-13T03:17:16.817Z,17.30
2023-02-13T03:18:07.022Z,15.40
2023-02-13T03:18:59.552Z,16.13
2023-02-13T03:20:11.565Z,16.50
2023-02-13T03:21:49.148Z,14.63
2023-02-13T03:22:41.897Z,13.57
2023-02-13T03:23:28.361Z,16.20
2023-02-13T03:24:32.162Z,15.00
2023-02-13T03:25:34.407Z,16.35
2023-02-13T03:26:33.420Z,15.65
2023-02-13T03:27:45.315Z,16.00
2023-02-13T03:29:03.213Z,16.05
2023-02-13T03:30:07.487Z,15.07
2023-02-13T03:30:50.913Z,15.27
2023-02-13T03:32:01.680Z,17.40
2023-02-13T03:32:54.720Z,15.25
2023-02-13T03:33:48.436Z,14.65
2023-02-13T03:34:25.096Z,15.05
2023-02-13T03:35:27.624Z,14.57
2023-02-13T03:36:35.903Z,14.40
2023-02-13T03:37:29.464Z,15.60
2023-02-13T03:38:09.680Z,16.05
2023-02-13T03:38:53.045Z,17.00
2023-02-13T03:39:49.523Z,17.50
2023-02-13T03:40:30.646Z,16.85
2023-02-13T03:41:20.785Z,16.42
2023-02-13T03:42:30.150Z,16.65
2023-02-13T03:43:10.327Z,15.73
2023-02-13T03:44:05.497Z,16.38
2023-02-13T03:44:46.167Z,15.73
2023-02-13T03:45:55.596Z,17.35
2023-02-13T03:46:30.854Z,16.85
2023-02-13T03:47:06.155Z,17.80
2023-02-13T03:47:39.456Z,17.38
2023-02-13T03:48:33.112Z,17.65
2023-02-13T03:49:26.116Z,17.90
2023-02-13T03:50:06.888Z,17.52
2023-02-13T03:50:43.266Z,19.75
2023-02-13T03:51:24.863Z,19.40
2023-02-13T03:52:10.950Z,18.70
2023-02-13T03:53:06.382Z,18.33
2023-02-13T03:53:42.267Z,17.95
2023-02-13T03:54:22.912Z,16.33
2023-02-13T03:55:16.763Z,17.70
2023-02-13T03:56:07.741Z,16.60
2023-02-13T03:56:59.946Z,16.95
2023-02-13T03:57:53.563Z,18.35
2023-02-13T03:59:06.863Z,18.75
2023-02-13T03:59:38.694Z,17.20
2023-02-13T04:00:14.815Z,18.00
2023-02-13T04:00:50.837Z,19.15
2023-02-13T04:01:29.212Z,18.38
2023-02-13T04:02:15.210Z,19.42
2023-02-13T04:03:00.849Z,19.95
2023-02-13T04:03:42.844Z,19.38
2023-02-13T04:04:31.445Z,19.83
2023-02-13T04:05:14.811Z,20.23
2023-02-13T04:05:55.989Z,19.70
2023-02-13T04:06:32.170Z,20.42
2023-02-13T04:07:10.973Z,19.02
2023-02-13T04:07:42.740Z,21.23
2023-02-13T04:08:14.375Z,21.08
2023-02-13T04:08:46.269Z,20.50
2023-02-13T04:09:18.509Z,20.27
2023-02-13T04:09:50.226Z,20.40
2023-02-13T04:10:23.974Z,20.58
2023-02-13T04:11:07.266Z,21.85
2023-02-13T04:12:09.265Z,20.27
2023-02-13T04:12:55.943Z,19.83
2023-02-13T04:13:35.415Z,19.15
2023-02-13T04:14:16.330Z,19.35
2023-02-13T04:15:16.292Z,20.33
2023-02-13T04:15:56.484Z,19.70
2023-02-13T04:16:44.837Z,19.10
2023-02-13T04:17:23.441Z,19.45
2023-02-13T04:18:03.665Z,18.60
2023-02-13T04:18:35.452Z,20.02
2023-02-13T04:19:08.925Z,19.17
2023-02-13T04:19:41.092Z,20.23
2023-02-13T04:20:13.060Z,18.90
2023-02-13T04:20:45.028Z,19.08
2023-02-13T04:21:16.600Z,20.52
2023-02-13T04:21:54.887Z,21.67
2023-02-13T04:22:26.464Z,21.45
2023-02-13T04:23:03.891Z,21.23
2023-02-13T04:23:36.988Z,21.27
2023-02-13T04:24:09.770Z,19.63
2023-02-13T04:24:41.512Z,20.77
2023-02-13T04:25:16.891Z,21.52
2023-02-13T04:25:53.712Z,20.13
2023-02-13T04:26:28.194Z,19.17
2023-02-13T04:27:00.183Z,20.85
2023-02-13T04:27:31.969Z,20.05
2023-02-13T04:28:04.162Z,20.05
2023-02-13T04:28:36.067Z,19.70
2023-02-13T04:29:08.708Z,20.45
2023-02-13T04:29:40.271Z,20.95
2023-02-13T04:30:12.768Z,19.70
2023-02-13T04:30:44.596Z,20.35
2023-02-13T04:31:16.468Z,21.25
2023-02-13T04:31:48.684Z,20.80
2023-02-13T04:32:20.361Z,20.17
2023-02-13T04:32:53.061Z,21.52
2023-02-13T04:33:25.053Z,20.35
2023-02-13T04:33:56.754Z,20.85
2023-02-13T04:34:28.361Z,20.92
2023-02-13T04:35:00.099Z,20.60
2023-02-13T04:35:31.976Z,20.35
2023-02-13T04:36:03.824Z,21.42
2023-02-13T04:36:35.462Z,21.13
2023-02-13T04:37:07.123Z,22.13
2023-02-13T04:37:38.702Z,22.08
2023-02-13T04:38:10.307Z,21.27
2023-02-13T04:38:41.943Z,20.58
2023-02-13T04:39:13.633Z,21.08
2023-02-13T04:39:45.218Z,21.15
2023-02-13T04:40:16.951Z,21.58
2023-02-13T04:40:48.547Z,21.55
2023-02-13T04:41:20.177Z,21.15
2023-02-13T04:41:51.850Z,21.67
2023-02-13T04:42:23.603Z,21.48
2023-02-13T04:42:55.365Z,22.13
2023-02-13T04:43:26.949Z,22.05
2023-02-13T04:43:58.600Z,21.73
2023-02-13T04:44:30.235Z,22.42
2023-02-13T04:45:02.047Z,20.77
2023-02-13T04:45:33.652Z,21.98
2023-02-13T04:46:05.489Z,21.77
2023-02-13T04:46:37.073Z,21.55
2023-02-13T04:47:08.754Z,21.23
2023-02-13T04:47:40.376Z,21.77
2023-02-13T04:48:11.990Z,21.08
2023-02-13T04:48:43.616Z,20.48
2023-02-13T04:49:15.176Z,20.42
2023-02-13T04:49:46.749Z,20.35
2023-02-13T04:50:18.521Z,20.55
2023-02-13T04:50:50.079Z,21.38
2023-02-13T04:51:21.700Z,22.00
2023-02-13T04:51:53.384Z,22.55
2023-02-13T04:52:25.285Z,21.27
2023-02-13T04:52:57.939Z,21.23
2023-02-13T04:53:29.626Z,22.52
2023-02-13T04:54:01.161Z,22.10
2023-02-13T04:54:32.751Z,21.70
2023-02-13T04:55:04.963Z,21.38
2023-02-13T04:55:36.558Z,22.42
2023-02-13T04:56:08.323Z,24.80
2023-02-13T04:56:39.942Z,27.02
2023-02-13T04:57:11.703Z,29.83
2023-02-13T04:57:43.362Z,27.45
2023-02-13T04:58:14.957Z,25.13
2023-02-13T04:58:46.584Z,26.58
2023-02-13T04:59:18.230Z,25.52
2023-02-13T04:59:49.800Z,22.35
2023-02-13T05:00:22.877Z,23.38
2023-02-13T05:00:54.976Z,23.13
2023-02-13T05:01:26.836Z,22.50
2023-02-13T05:01:59.389Z,22.20
2023-02-13T05:02:31.785Z,21.75
2023-02-13T05:03:11.738Z,21.50
2023-02-13T05:03:43.581Z,20.60
2023-02-13T05:04:16.493Z,20.10
2023-02-13T05:04:48.303Z,20.85
2023-02-13T05:05:20.843Z,21.23
2023-02-13T05:05:52.415Z,22.05
2023-02-13T05:06:23.988Z,24.33
2023-02-13T05:06:55.740Z,23.25
2023-02-13T05:07:27.479Z,21.17
2023-02-13T05:07:59.133Z,20.20
2023-02-13T05:08:30.782Z,20.25
2023-02-13T05:09:02.391Z,21.13
2023-02-13T05:09:33.969Z,19.88
2023-02-13T05:10:06.081Z,20.33
2023-02-13T05:10:37.813Z,20.88
2023-02-13T05:11:09.426Z,20.98
2023-02-13T05:11:41.071Z,21.23
2023-02-13T05:12:12.630Z,23.15
2023-02-13T05:12:44.328Z,21.90
2023-02-13T05:13:16.891Z,22.92
2023-02-13T05:13:48.528Z,22.15
2023-02-13T05:14:20.653Z,22.83
2023-02-13T05:14:52.259Z,23.77
2023-02-13T05:15:24.130Z,21.63
2023-02-13T05:15:55.844Z,21.85
2023-02-13T05:16:27.533Z,21.48
2023-02-13T05:16:59.108Z,22.40
2023-02-13T05:17:30.710Z,22.35
2023-02-13T05:18:02.473Z,20.17
2023-02-13T05:18:34.156Z,19.90
2023-02-13T05:19:05.806Z,19.98
2023-02-13T05:19:37.477Z,18.77
2023-02-13T05:20:09.512Z,20.30
2023-02-13T05:20:41.999Z,19.67
2023-02-13T05:21:32.560Z,18.88
2023-02-13T05:22:23.020Z,20.38
2023-02-13T05:23:13.162Z,18.65
2023-02-13T05:23:44.932Z,19.65
2023-02-13T05:24:18.256Z,19.42
2023-02-13T05:24:51.091Z,19.02
2023-02-13T05:25:22.671Z,19.77
2023-02-13T05:25:54.299Z,20.25
2023-02-13T05:26:25.944Z,20.85
2023-02-13T05:26:57.660Z,20.45
2023-02-13T05:27:29.362Z,20.73
2023-02-13T05:28:01.269Z,20.85
2023-02-13T05:28:51.296Z,20.63
2023-02-13T05:29:23.193Z,21.45
2023-02-13T05:29:54.769Z,19.25
2023-02-13T05:30:26.488Z,20.38
2023-02-13T05:30:58.664Z,20.20
2023-02-13T05:31:30.708Z,20.30
2023-02-13T05:32:02.684Z,20.77
2023-02-13T05:32:34.571Z,20.90
2023-02-13T05:33:06.146Z,20.48
2023-02-13T05:33:38.033Z,22.05
2023-02-13T05:34:10.046Z,22.55
2023-02-13T05:34:41.779Z,22.13
2023-02-13T05:35:13.355Z,21.65
2023-02-13T05:35:45.190Z,22.80
2023-02-13T05:36:16.921Z,22.67
2023-02-13T05:36:48.624Z,22.17
2023-02-13T05:37:20.245Z,21.90
2023-02-13T05:37:51.876Z,23.02
2023-02-13T05:38:23.721Z,21.90
2023-02-13T05:38:55.340Z,23.50
2023-02-13T05:39:26.946Z,21.58
2023-02-13T05:39:58.529Z,21.90
2023-02-13T05:40:30.142Z,23.50
2023-02-13T05:41:01.744Z,21.52
2023-02-13T05:41:33.374Z,23.35
2023-02-13T05:42:05.243Z,23.25
2023-02-13T05:42:37.045Z,21.88
2023-02-13T05:43:08.722Z,20.88
2023-02-13T05:43:40.405Z,22.02
2023-02-13T05:44:12.697Z,22.60
2023-02-13T05:44:44.310Z,21.13
2023-02-13T05:45:16.271Z,22.65
2023-02-13T05:45:48.434Z,23.58
2023-02-13T05:46:20.091Z,24.73
2023-02-13T05:46:53.314Z,22.83
2023-02-13T05:47:25.047Z,23.20
2023-02-13T05:47:56.636Z,25.13
2023-02-13T05:48:28.328Z,22.65
2023-02-13T05:49:00.183Z,21.85
2023-02-13T05:49:31.794Z,21.92
2023-02-13T05:50:03.550Z,21.35
2023-02-13T05:50:35.122Z,21.80
2023-02-13T05:51:06.926Z,22.88
2023-02-13T05:51:38.576Z,23.10
2023-02-13T05:52:10.198Z,23.10
2023-02-13T05:52:41.817Z,22.08
2023-02-13T05:53:13.439Z,22.70
2023-02-13T05:53:45.103Z,22.10
2023-02-13T05:54:16.914Z,22.98
2023-02-13T05:54:48.559Z,27.23
2023-02-13T05:55:20.261Z,28.27
2023-02-13T05:55:52.408Z,24.00
2023-02-13T05:56:24.409Z,23.55
2023-02-13T05:56:56.051Z,22.98
2023-02-13T05:57:27.665Z,23.05
2023-02-13T05:57:59.274Z,24.95
2023-02-13T05:58:30.997Z,24.67
2023-02-13T05:59:02.718Z,23.65
2023-02-13T05:59:34.496Z,23.98
2023-02-13T06:00:07.219Z,24.77
2023-02-13T06:00:38.853Z,27.00
2023-02-13T06:01:11.047Z,31.55
2023-02-13T06:01:42.724Z,30.15
2023-02-13T06:02:14.360Z,37.67
2023-02-13T06:02:46.144Z,43.30
2023-02-13T06:03:17.938Z,42.65
2023-02-13T06:03:49.680Z,34.20
2023-02-13T06:04:21.377Z,30.73
2023-02-13T06:04:53.096Z,28.45
2023-02-13T06:05:24.715Z,27.40
2023-02-13T06:05:56.434Z,24.98
2023-02-13T06:06:28.354Z,27.88
2023-02-13T06:07:00.151Z,26.05
2023-02-13T06:07:31.896Z,24.45
2023-02-13T06:08:03.827Z,23.85
2023-02-13T06:08:35.619Z,24.42
2023-02-13T06:09:07.485Z,22.48
2023-02-13T06:09:39.153Z,22.85
2023-02-13T06:10:11.226Z,23.02
2023-02-13T06:10:45.140Z,22.02
2023-02-13T06:11:16.869Z,20.48
2023-02-13T06:11:48.597Z,21.95
2023-02-13T06:12:20.211Z,22.27
2023-02-13T06:12:51.850Z,21.33
2023-02-13T06:13:23.577Z,22.67
2023-02-13T06:13:55.177Z,21.80
2023-02-13T06:14:26.794Z,22.50
2023-02-13T06:14:58.435Z,22.60
2023-02-13T06:15:30.187Z,22.83
2023-02-13T06:16:02.051Z,20.90
2023-02-13T06:16:34.734Z,22.17
2023-02-13T06:17:06.392Z,22.05
2023-02-13T06:17:37.985Z,22.23
2023-02-13T06:18:09.858Z,22.73
2023-02-13T06:18:41.496Z,22.65
2023-02-13T06:19:13.500Z,21.85
2023-02-13T06:19:45.075Z,22.05
2023-02-13T06:20:16.760Z,21.77
2023-02-13T06:20:48.493Z,22.58
2023-02-13T06:21:20.152Z,20.98
2023-02-13T06:21:51.906Z,21.10
2023-02-13T06:22:23.551Z,20.75
2023-02-13T06:22:55.413Z,22.13
2023-02-13T06:23:27.110Z,22.13
2023-02-13T06:23:58.699Z,22.05
2023-02-13T06:24:30.328Z,21.55
2023-02-13T06:25:02.093Z,21.45
2023-02-13T06:25:36.227Z,23.92
2023-02-13T06:26:09.360Z,23.25
2023-02-13T06:26:41.042Z,22.75
2023-02-13T06:27:12.623Z,22.17
2023-02-13T06:27:44.551Z,23.35
2023-02-13T06:28:16.381Z,24.00
2023-02-13T06:28:48.049Z,23.35
2023-02-13T06:29:19.692Z,23.30
2023-02-13T06:29:51.335Z,22.27
2023-02-13T06:30:23.171Z,21.85
2023-02-13T06:30:54.940Z,22.30
2023-02-13T06:31:27.150Z,23.00
2023-02-13T06:31:59.055Z,23.48
2023-02-13T06:32:30.734Z,23.17
2023-02-13T06:33:02.350Z,22.90
2023-02-13T06:33:33.949Z,23.83
2023-02-13T06:34:05.622Z,24.00
2023-02-13T06:34:37.321Z,23.40
2023-02-13T06:35:09.858Z,23.23
2023-02-13T06:35:41.921Z,24.33
2023-02-13T06:36:13.596Z,22.48
2023-02-13T06:36:45.281Z,23.70
2023-02-13T06:37:16.881Z,22.75
2023-02-13T06:37:48.852Z,21.73
2023-02-13T06:38:21.903Z,23.08
2023-02-13T06:38:53.542Z,22.40
2023-02-13T06:39:25.134Z,22.75
2023-02-13T06:39:56.872Z,23.98
2023-02-13T06:40:28.599Z,25.42
2023-02-13T06:41:02.146Z,26.05
2023-02-13T06:41:33.766Z,25.65
2023-02-13T06:42:05.378Z,25.58
2023-02-13T06:42:37.006Z,25.05
2023-02-13T06:43:08.690Z,24.77
2023-02-13T06:43:40.947Z,24.83
2023-02-13T06:44:12.597Z,24.83
2023-02-13T06:44:44.408Z,24.30
2023-02-13T06:45:16.042Z,24.55
2023-02-13T06:45:47.681Z,24.55
2023-02-13T06:46:19.353Z,23.02
2023-02-13T06:46:51.255Z,23.77
2023-02-13T06:47:22.949Z,22.67
2023-02-13T06:47:54.556Z,23.95
2023-02-13T06:48:26.193Z,23.15
2023-02-13T06:48:57.823Z,21.77
2023-02-13T06:49:29.390Z,21.55
2023-02-13T06:50:00.984Z,22.67
2023-02-13T06:50:32.722Z,22.55
2023-02-13T06:51:04.951Z,22.00
2023-02-13T06:51:36.671Z,22.17
2023-02-13T06:52:08.273Z,22.60
2023-02-13T06:52:39.988Z,22.73
2023-02-13T06:53:11.733Z,22.15
2023-02-13T06:53:43.339Z,21.70
2023-02-13T06:54:15.029Z,22.67
2023-02-13T06:54:48.143Z,22.17
2023-02-13T06:55:21.063Z,21.23
2023-02-13T06:55:53.832Z,22.85
2023-02-13T06:56:26.483Z,22.13
2023-02-13T06:56:58.116Z,21.30
2023-02-13T06:57:33.076Z,21.88
2023-02-13T06:58:04.924Z,21.85
2023-02-13T06:58:36.667Z,21.95
2023-02-13T06:59:08.490Z,21.70
2023-02-13T06:59:40.183Z,22.02
2023-02-13T07:00:14.069Z,22.23
2023-02-13T07:00:45.727Z,23.23
2023-02-13T07:01:17.612Z,24.33
2023-02-13T07:01:49.258Z,24.85
2023-02-13T07:02:21.018Z,25.88
2023-02-13T07:02:52.681Z,25.40
2023-02-13T07:03:24.367Z,25.50
2023-02-13T07:03:55.996Z,24.88
2023-02-13T07:04:28.045Z,23.40
2023-02-13T07:04:59.651Z,25.00
2023-02-13T07:05:31.873Z,23.75
2023-02-13T07:06:03.661Z,24.80
2023-02-13T07:06:35.443Z,23.75
2023-02-13T07:07:07.143Z,23.67
2023-02-13T07:07:43.779Z,25.05
2023-02-13T07:08:15.410Z,23.08
2023-02-13T07:08:47.697Z,22.50
2023-02-13T07:09:19.291Z,22.48
2023-02-13T07:09:51.258Z,22.20
2023-02-13T07:10:22.982Z,22.00
2023-02-13T07:10:54.654Z,22.10
2023-02-13T07:11:26.401Z,22.08
2023-02-13T07:11:58.462Z,22.40
2023-02-13T07:12:30.118Z,21.95
2023-02-13T07:13:06.000Z,22.90
2023-02-13T07:13:38.122Z,21.75
2023-02-13T07:14:10.236Z,21.90
2023-02-13T07:14:41.917Z,23.13
2023-02-13T07:15:13.609Z,22.30
2023-02-13T07:15:45.408Z,21.67
2023-02-13T07:16:17.180Z,22.95
2023-02-13T07:16:50.280Z,23.45
2023-02-13T07:17:21.924Z,23.88
2023-02-13T07:17:57.539Z,22.77
2023-02-13T07:18:29.297Z,23.00
2023-02-13T07:19:00.972Z,22.65
2023-02-13T07:19:33.029Z,21.23
2023-02-13T07:20:05.904Z,22.45
2023-02-13T07:20:37.599Z,21.60
2023-02-13T07:21:09.239Z,22.65
2023-02-13T07:21:40.897Z,23.27
2023-02-13T07:22:12.591Z,22.92
2023-02-13T07:22:44.221Z,21.05
2023-02-13T07:23:15.847Z,22.05
2023-02-13T07:23:47.469Z,20.65
2023-02-13T07:24:19.090Z,21.67
2023-02-13T07:24:50.816Z,21.80
2023-02-13T07:25:22.452Z,23.60
2023-02-13T07:25:54.019Z,21.85
2023-02-13T07:26:26.612Z,20.30
2023-02-13T07:26:58.966Z,20.75
2023-02-13T07:27:30.660Z,21.25
2023-02-13T07:28:06.969Z,19.77
2023-02-13T07:28:38.893Z,20.77
2023-02-13T07:29:12.153Z,21.55
2023-02-13T07:29:44.023Z,20.38
2023-02-13T07:30:15.823Z,20.02
2023-02-13T07:30:47.422Z,19.50
2023-02-13T07:31:19.368Z,20.02
2023-02-13T07:31:51.058Z,19.95
2023-02-13T07:32:23.757Z,20.75
2023-02-13T07:32:59.564Z,20.60
2023-02-13T07:33:31.290Z,20.35
2023-02-13T07:34:02.988Z,19.52
2023-02-13T07:34:34.750Z,19.83
2023-02-13T07:35:06.602Z,18.88
2023-02-13T07:35:40.886Z,19.90
2023-02-13T07:36:12.442Z,18.52
2023-02-13T07:36:44.120Z,19.95
2023-02-13T07:37:15.721Z,19.95
2023-02-13T07:37:47.379Z,19.73
2023-02-13T07:38:19.641Z,19.33
2023-02-13T07:38:51.228Z,20.10
2023-02-13T07:39:22.870Z,19.15
2023-02-13T07:39:54.494Z,19.92
2023-02-13T07:40:26.387Z,20.02
2023-02-13T07:41:04.599Z,19.55
2023-02-13T07:41:36.351Z,18.98